Time;durP1;ratioP1;P1;durP2;ratioP2;P2;SDS_P1;SDS_P2;PMS_P1;PMS_P2;Temp;Humidity;BMP_temperature;BMP_pressure;BME280_temperature;BME280_humidity;BME280_pressure;Samples;Min_cycle;Max_cycle;Signal;HPM_P1;HPM_P2
2022/03/04 00:00:23;;;;;;;15.20;8.80;;;;;;;4.53;61.54;101924.88;4993961;28;97019;-75
2022/03/04 00:02:49;;;;;;;17.77;8.68;;;;;;;4.40;61.96;101927.34;4994363;28;96832;-76
2022/03/04 00:05:15;;;;;;;21.70;8.80;;;;;;;4.41;62.20;101928.22;4993258;28;98171;-76
2022/03/04 00:07:42;;;;;;;20.77;8.73;;;;;;;4.75;61.04;101937.22;4995019;28;98798;-76
2022/03/04 00:10:11;;;;;;;13.90;8.25;;;;;;;4.98;59.70;101940.91;4995065;28;96751;-78
2022/03/04 00:12:41;;;;;;;16.02;6.70;;;;;;;5.22;58.90;101932.28;4994089;28;96852;-77
2022/03/04 00:15:09;;;;;;;14.50;7.43;;;;;;;5.14;59.49;101933.97;4997514;28;100181;-76
2022/03/04 00:17:36;;;;;;;20.00;7.78;;;;;;;5.18;58.80;101933.16;5002940;28;101203;-77
2022/03/04 00:20:03;;;;;;;17.13;8.13;;;;;;;5.57;57.69;101935.97;4993775;28;96886;-76
2022/03/04 00:22:33;;;;;;;15.77;8.55;;;;;;;5.35;57.54;101936.72;5014060;28;96673;-76
2022/03/04 00:25:00;;;;;;;20.00;7.10;;;;;;;5.26;57.91;101934.03;5012332;28;97838;-76
2022/03/04 00:27:26;;;;;;;16.30;7.80;;;;;;;5.82;57.21;101939.53;5014208;28;98223;-75
2022/03/04 00:29:52;;;;;;;15.30;6.75;;;;;;;5.73;56.64;101939.50;5016892;28;96753;-75
2022/03/04 00:32:20;;;;;;;19.23;8.25;;;;;;;5.68;56.72;101937.72;5011717;28;96896;-76
2022/03/04 00:34:46;;;;;;;14.43;7.28;;;;;;;5.52;57.56;101940.28;5019379;28;97962;-75
2022/03/04 00:37:13;;;;;;;17.90;7.32;;;;;;;5.27;58.28;101934.94;5015266;28;98116;-76
2022/03/04 00:39:42;;;;;;;16.67;7.35;;;;;;;5.76;56.60;101942.13;5015969;28;96542;-75
2022/03/04 00:42:10;;;;;;;13.07;6.95;;;;;;;5.64;57.33;101947.34;5013951;28;96767;-76
2022/03/04 00:44:39;;;;;;;15.38;7.45;;;;;;;6.10;55.72;101947.50;5015277;28;102139;-75
2022/03/04 00:47:06;;;;;;;18.58;7.30;;;;;;;5.41;57.44;101962.97;5013814;28;100115;-73
2022/03/04 00:49:35;;;;;;;13.32;6.38;;;;;;;5.02;59.33;101953.13;5003978;28;96781;-74
2022/03/04 00:52:02;;;;;;;17.10;6.85;;;;;;;4.90;59.70;101952.19;4997407;28;97532;-74
2022/03/04 00:54:36;;;;;;;20.38;7.20;;;;;;;4.63;60.35;101963.31;5001716;28;103199;-76
2022/03/04 00:57:06;;;;;;;15.40;7.22;;;;;;;4.47;61.49;101967.53;4997283;28;97704;-75
2022/03/04 00:59:33;;;;;;;13.75;7.10;;;;;;;4.67;60.57;101959.84;4997505;28;98635;-75
2022/03/04 01:01:59;;;;;;;17.90;7.88;;;;;;;4.55;60.87;101960.63;4991919;28;97257;-77
2022/03/04 01:04:26;;;;;;;16.77;7.63;;;;;;;4.63;61.08;101965.94;4998941;28;97829;-75
2022/03/04 01:06:58;;;;;;;19.15;8.18;;;;;;;4.69;60.64;101963.38;5004535;28;99055;-76
2022/03/04 01:09:25;;;;;;;20.17;7.72;;;;;;;5.51;58.52;101969.13;4996403;28;97590;-76
2022/03/04 01:11:51;;;;;;;27.30;7.15;;;;;;;6.05;56.50;101957.97;5004509;28;98999;-74
2022/03/04 01:14:18;;;;;;;14.65;6.88;;;;;;;5.87;56.21;101966.69;5005083;28;99075;-75
2022/03/04 01:16:44;;;;;;;18.23;7.68;;;;;;;4.94;59.22;101964.41;5000880;28;98873;-76
2022/03/04 01:19:10;;;;;;;14.93;6.88;;;;;;;4.47;61.14;101967.53;5007580;28;97146;-77
2022/03/04 01:21:38;;;;;;;17.85;7.53;;;;;;;4.41;62.03;101973.59;5004955;28;97608;-76
2022/03/04 01:24:11;;;;;;;17.90;7.68;;;;;;;4.35;62.01;101967.44;5001006;28;97925;-77
2022/03/04 01:26:37;;;;;;;15.20;8.38;;;;;;;4.94;60.56;101965.28;5007598;28;98838;-76
2022/03/04 01:29:10;;;;;;;19.88;8.13;;;;;;;5.04;60.08;101958.38;5000613;28;96804;-77
2022/03/04 01:31:36;;;;;;;24.33;9.02;;;;;;;5.06;59.26;101962.75;5003667;28;96704;-78
2022/03/04 01:34:03;;;;;;;22.17;8.73;;;;;;;4.64;60.91;101960.72;5004842;28;99212;-76
2022/03/04 01:36:33;;;;;;;22.08;9.75;;;;;;;5.15;59.58;101967.19;5004829;28;98868;-77
2022/03/04 01:38:59;;;;;;;20.92;9.00;;;;;;;4.97;59.22;101961.84;4999556;28;97275;-77
2022/03/04 01:41:30;;;;;;;21.45;10.55;;;;;;;4.77;59.88;101962.56;5007554;28;96911;-78
2022/03/04 01:44:02;;;;;;;29.77;10.57;;;;;;;5.14;58.57;101960.19;4999892;28;98862;-77
2022/03/04 01:46:36;;;;;;;39.20;12.20;;;;;;;4.79;59.96;101950.34;5005098;28;97474;-78
2022/03/04 01:49:04;;;;;;;39.03;11.45;;;;;;;4.98;59.19;101954.00;5002169;28;97457;-77
2022/03/04 01:51:33;;;;;;;31.73;12.60;;;;;;;5.28;59.13;101952.41;5005534;28;96870;-77
2022/03/04 01:53:59;;;;;;;29.63;11.40;;;;;;;5.51;57.90;101953.41;5000918;28;99372;-76
2022/03/04 01:56:26;;;;;;;38.55;11.75;;;;;;;6.00;56.35;101947.47;5001878;28;98068;-75
2022/03/04 01:58:54;;;;;;;37.25;11.50;;;;;;;6.36;54.70;101948.41;5006482;28;96829;-76
2022/03/04 02:01:20;;;;;;;33.65;11.27;;;;;;;6.08;55.29;101941.38;5011311;28;96693;-74
2022/03/04 02:03:54;;;;;;;39.25;12.18;;;;;;;5.79;56.50;101950.00;5003589;28;102086;-74
2022/03/04 02:06:21;;;;;;;36.83;12.15;;;;;;;6.27;55.43;101941.41;5004050;28;96738;-75
2022/03/04 02:08:52;;;;;;;32.85;11.05;;;;;;;6.59;54.09;101936.16;5006700;28;97423;-76
2022/03/04 02:11:20;;;;;;;32.10;10.45;;;;;;;6.29;54.58;101937.03;5005336;28;97572;-75
2022/03/04 02:13:47;;;;;;;28.08;10.15;;;;;;;5.48;57.46;101935.91;5008701;28;98936;-76
2022/03/04 02:16:28;;;;;;;29.08;8.43;;;;;;;4.98;58.52;101943.50;4999468;28;98874;-77
2022/03/04 02:18:55;;;;;;;22.60;8.10;;;;;;;4.86;59.41;101938.16;4995314;28;98919;-75
2022/03/04 02:21:23;;;;;;;28.85;9.73;;;;;;;4.88;59.16;101940.81;5004632;28;97741;-75
2022/03/04 03:34:01;;;;;;;12.40;4.38;;;;;;;6.74;53.59;101949.28;5517580;22;98849;-80
2022/03/04 03:36:28;;;;;;;13.30;4.53;;;;;;;7.00;53.01;101949.25;4988112;28;99559;-80
2022/03/04 03:39:15;;;;;;;13.23;4.72;;;;;;;6.75;53.37;101951.03;4989096;28;101497;-80
2022/03/04 03:41:48;;;;;;;15.27;5.00;;;;;;;5.93;55.67;101955.31;4991139;28;96563;-80
2022/03/04 03:44:16;;;;;;;19.17;6.28;;;;;;;5.69;56.83;101953.47;4988730;28;98419;-80
2022/03/04 03:46:46;;;;;;;23.40;6.32;;;;;;;4.85;59.37;101951.28;4993302;28;100435;-80
2022/03/04 03:49:20;;;;;;;18.85;6.80;;;;;;;5.10;59.17;101951.44;4992182;28;99220;-79
2022/03/04 03:51:53;;;;;;;21.20;8.18;;;;;;;4.97;58.88;101944.38;5002467;28;98000;-82
2022/03/04 03:54:19;;;;;;;24.45;8.20;;;;;;;5.44;58.29;101949.88;4988431;28;98046;-80
2022/03/04 03:57:12;;;;;;;21.48;8.35;;;;;;;5.38;57.93;101952.44;4990561;28;97928;-82
2022/03/04 03:59:42;;;;;;;21.88;8.38;;;;;;;6.24;55.49;101948.38;4993787;28;98099;-80
2022/03/04 04:02:28;;;;;;;24.38;8.43;;;;;;;6.74;53.93;101941.41;5000097;28;96709;-81
2022/03/04 04:05:17;;;;;;;;;;;;;;;7.11;52.54;101939.59;5008693;28;96889;-80
2022/03/04 04:11:27;;;;;;;;;;;;;;;;;;;;;
2022/03/04 04:13:58;;;;;;;26.33;9.57;;;;;;;7.27;51.79;101932.53;4907733;28;122146;-80
2022/03/04 04:17:01;;;;;;;;;;;;;;;;;;;;;
2022/03/04 04:19:30;;;;;;;23.17;9.45;;;;;;;7.45;51.35;101948.25;4976983;28;126678;-82
2022/03/04 04:22:21;;;;;;;28.90;8.98;;;;;;;7.48;51.16;101945.59;4986191;28;101472;-81
2022/03/04 05:30:30;;;;;;;;;;;;;;;;;;;;;
2022/03/04 05:36:17;;;;;;;16.85;7.28;;;;;;;6.14;55.68;101971.13;4876000;28;97069;-80
2022/03/04 05:38:44;;;;;;;12.13;4.90;;;;;;;5.89;56.16;101978.06;4975956;28;96830;-83
2022/03/04 05:41:13;;;;;;;13.93;4.90;;;;;;;5.64;58.19;101989.31;4972448;28;99705;-82
2022/03/04 05:43:42;;;;;;;14.10;5.43;;;;;;;5.58;58.19;101984.00;4964354;28;97688;-81
2022/03/04 05:46:09;;;;;;;12.40;4.25;;;;;;;5.46;58.70;101986.56;4972076;28;96726;-81
2022/03/04 05:48:38;;;;;;;9.80;3.67;;;;;;;5.30;59.81;101984.75;4974982;28;97483;-82
2022/03/04 05:51:09;;;;;;;10.73;4.00;;;;;;;5.54;58.79;101984.88;4975929;28;101306;-82
2022/03/04 05:53:37;;;;;;;10.70;5.15;;;;;;;6.25;56.70;101985.13;4977843;28;100278;-81
2022/03/04 05:56:06;;;;;;;15.98;6.72;;;;;;;6.31;56.46;101992.13;4982374;28;96694;-81
2022/03/04 05:58:36;;;;;;;17.67;6.68;;;;;;;6.24;56.44;101982.50;4975555;28;96859;-79
2022/03/04 06:01:06;;;;;;;12.10;6.38;;;;;;;6.40;55.52;101994.78;4983325;28;100675;-80
2022/03/04 06:03:35;;;;;;;16.77;5.78;;;;;;;5.95;56.67;102003.44;4973200;28;100099;-80
2022/03/04 06:06:01;;;;;;;11.68;4.22;;;;;;;6.36;56.05;102000.94;4974099;28;96722;-79
2022/03/04 06:08:28;;;;;;;14.57;3.72;;;;;;;6.34;56.12;102000.03;4981080;28;97275;-81
2022/03/04 06:11:00;;;;;;;8.45;4.10;;;;;;;6.71;54.66;101999.19;4986805;28;97758;-80
2022/03/04 06:13:26;;;;;;;8.50;3.45;;;;;;;6.91;53.88;102011.44;4976143;28;97848;-80
2022/03/04 06:15:53;;;;;;;10.65;3.40;;;;;;;6.89;54.55;102014.09;4978736;28;96498;-79
2022/03/04 06:18:28;;;;;;;11.98;3.63;;;;;;;6.73;54.52;102022.84;4977477;28;96966;-80
2022/03/04 06:21:05;;;;;;;8.52;3.38;;;;;;;6.66;54.70;102024.59;4985753;28;96394;-81
2022/03/04 06:24:08;;;;;;;;;;;;;;;;;;;;;
2022/03/04 07:21:16;;;;;;;;;;;;;;;;;;;;;
2022/03/04 07:23:58;;;;;;;;;;;;;;;;;;;;;
2022/03/04 07:26:27;;;;;;;11.23;3.50;;;;;;;7.20;54.20;102041.22;5005558;28;122141;-80
2022/03/04 07:29:17;;;;;;;9.52;3.13;;;;;;;6.88;55.33;102053.50;5008007;28;96961;-81
2022/03/04 07:41:09;;;;;;;11.75;4.20;;;;;;;6.87;55.08;102057.00;5003581;28;97165;-81
2022/03/04 07:44:26;;;;;;;;;;;;;;;;;;;;;
2022/03/04 07:47:09;;;;;;;11.68;4.80;;;;;;;6.96;54.16;102062.25;5009747;28;126981;-82
2022/03/04 07:49:36;;;;;;;12.63;4.20;;;;;;;6.98;54.53;102066.63;5004476;28;97689;-82
2022/03/04 07:52:08;;;;;;;11.18;3.67;;;;;;;6.67;55.67;102059.59;4993160;28;97303;-80
2022/03/04 07:58:01;;;;;;;11.73;4.05;;;;;;;7.44;53.10;102067.47;4995838;28;98452;-81
2022/03/04 08:00:32;;;;;;;14.25;4.20;;;;;;;7.15;53.85;102061.38;4995359;28;97049;-81
2022/03/04 08:03:01;;;;;;;8.82;3.80;;;;;;;7.05;54.45;102068.38;4991726;28;97050;-82
2022/03/04 08:05:37;;;;;;;16.38;4.10;;;;;;;6.99;55.05;102084.16;4996731;28;98615;-82
2022/03/04 08:08:05;;;;;;;11.90;3.50;;;;;;;6.82;55.16;102075.41;4996495;28;101413;-79
2022/03/04 08:10:32;;;;;;;11.88;3.50;;;;;;;6.09;57.12;102083.09;4998081;28;97193;-79
2022/03/04 08:12:59;;;;;;;17.50;3.60;;;;;;;6.63;55.97;102092.84;4993784;28;96823;-79
2022/03/04 08:15:26;;;;;;;9.57;2.70;;;;;;;7.52;52.78;102091.13;4996848;28;98838;-79
2022/03/04 08:17:56;;;;;;;9.20;3.25;;;;;;;7.74;51.61;102081.44;5003026;28;100988;-80
2022/03/04 08:20:26;;;;;;;9.00;2.97;;;;;;;7.08;52.68;102096.44;5004774;28;98804;-80
2022/03/04 08:22:55;;;;;;;7.82;3.47;;;;;;;7.54;52.06;102090.28;5005387;28;96861;-82
2022/03/04 08:26:02;;;;;;;;;;;;;;;;;;;;;
2022/03/04 08:28:30;;;;;;;10.60;3.17;;;;;;;7.59;51.14;102092.88;4999995;28;126563;-81
2022/03/04 08:30:56;;;;;;;6.70;3.05;;;;;;;7.14;52.27;102099.94;5008236;28;96971;-81
2022/03/04 08:33:29;;;;;;;8.77;3.45;;;;;;;7.32;51.50;102096.41;5005042;28;97158;-80
2022/03/04 08:36:10;;;;;;;15.60;4.00;;;;;;;7.45;51.59;102098.16;5013135;28;97650;-80
2022/03/04 08:38:40;;;;;;;16.42;4.47;;;;;;;7.25;51.54;102099.94;5011663;28;97303;-80
2022/03/04 08:41:07;;;;;;;9.07;4.22;;;;;;;6.77;53.04;102106.00;5016243;28;97551;-81
2022/03/04 08:43:34;;;;;;;12.52;4.43;;;;;;;6.88;52.38;102114.81;5022560;27;97815;-81
2022/03/04 08:46:38;;;;;;;;;;;;;;;;;;;;;
2022/03/04 08:49:13;;;;;;;14.02;4.72;;;;;;;7.76;50.35;102114.75;5013695;28;125494;-80
2022/03/04 08:51:43;;;;;;;11.15;4.60;;;;;;;7.47;50.29;102112.19;5009050;28;97284;-80
2022/03/04 08:54:15;;;;;;;12.40;4.80;;;;;;;7.76;49.43;102111.25;4995858;28;96869;-81
2022/03/04 08:56:54;;;;;;;8.27;4.50;;;;;;;7.74;49.09;102106.00;5006358;28;100079;-80
2022/03/04 08:59:33;;;;;;;9.73;3.75;;;;;;;7.49;49.33;102113.03;5006971;28;97609;-81
2022/03/04 09:02:06;;;;;;;7.78;3.88;;;;;;;7.52;48.95;102107.78;5004039;28;97411;-80
2022/03/04 09:04:44;;;;;;;10.68;3.58;;;;;;;7.25;49.88;102113.06;5002569;28;97243;-80
2022/03/04 09:07:12;;;;;;;12.57;3.85;;;;;;;7.67;49.33;102106.91;5001269;28;98859;-81
2022/03/04 09:09:39;;;;;;;15.25;3.53;;;;;;;8.18;47.73;102112.88;4993958;28;102189;-79
2022/03/04 09:12:15;;;;;;;8.35;3.20;;;;;;;8.25;47.22;102111.97;5002771;28;96795;-80
2022/03/04 09:18:03;;;;;;;7.50;3.42;;;;;;;8.06;47.12;102113.81;4998519;28;97905;-82
2022/03/04 09:20:45;;;;;;;5.80;3.42;;;;;;;7.81;47.47;102112.97;5020402;28;98735;-81
2022/03/04 09:23:15;;;;;;;9.15;2.65;;;;;;;7.56;47.24;102109.53;4998212;28;96907;-80
2022/03/04 09:29:06;;;;;;;9.82;2.83;;;;;;;8.14;46.49;102119.91;4913872;28;98879;-82
2022/03/04 09:43:19;;;;;;;7.85;3.20;;;;;;;8.24;46.74;102116.38;5004643;28;97655;-82
2022/03/04 09:45:49;;;;;;;9.98;3.35;;;;;;;8.85;44.95;102116.06;4983003;28;96935;-81
2022/03/04 09:48:40;;;;;;;9.57;3.00;;;;;;;9.61;43.04;102112.78;4987189;28;97594;-81
2022/03/04 09:51:39;;;;;;;5.35;3.13;;;;;;;8.62;44.98;102112.69;4986277;28;101366;-80
2022/03/04 09:54:07;;;;;;;7.40;3.35;;;;;;;8.82;44.66;102112.56;4966416;28;97493;-80
2022/03/04 09:56:38;;;;;;;7.43;3.28;;;;;;;9.07;43.61;102111.50;5001865;28;98787;-81
2022/03/04 09:59:08;;;;;;;8.95;3.33;;;;;;;9.90;41.82;102100.16;4995292;28;97229;-81
2022/03/04 10:01:38;;;;;;;7.97;3.60;;;;;;;9.18;41.44;102110.56;4996715;28;99372;-80
2022/03/04 10:04:06;;;;;;;5.18;3.10;;;;;;;9.88;40.53;102098.44;4990755;28;99148;-81
2022/03/04 10:06:39;;;;;;;10.85;3.70;;;;;;;8.88;42.14;102108.13;4990817;28;97087;-81
2022/03/04 10:09:10;;;;;;;6.88;3.70;;;;;;;8.41;43.25;102111.03;4995769;28;97254;-80
2022/03/04 10:11:38;;;;;;;7.75;3.83;;;;;;;7.62;45.29;102108.63;5007348;28;99387;-81
2022/03/04 10:14:16;;;;;;;15.48;4.30;;;;;;;8.23;44.54;102109.34;4996924;28;99730;-80
2022/03/04 10:16:43;;;;;;;9.32;3.67;;;;;;;7.92;45.71;102108.59;4992064;28;97111;-81
2022/03/04 10:19:25;;;;;;;7.13;3.90;;;;;;;7.93;45.38;102101.56;4995870;28;97184;-82
2022/03/04 10:22:38;;;;;;;;;;;;;;;;;;;;;
2022/03/04 10:25:23;;;;;;;6.22;2.78;;;;;;;8.05;42.81;102106.78;4984798;28;126982;-81
2022/03/04 10:27:51;;;;;;;5.57;2.60;;;;;;;7.69;42.75;102106.88;4992856;28;97907;-82
2022/03/04 10:30:49;;;;;;;7.53;2.50;;;;;;;6.85;44.36;102106.03;4988315;28;97668;-82
2022/03/04 10:33:34;;;;;;;6.78;2.47;;;;;;;7.58;43.46;102107.78;4997190;28;98090;-82
2022/03/04 10:36:15;;;;;;;6.88;2.30;;;;;;;7.42;43.61;102099.91;4999987;28;99653;-80
2022/03/04 10:38:46;;;;;;;7.30;2.60;;;;;;;7.44;44.54;102109.56;5003349;28;96790;-79
2022/03/04 10:41:35;;;;;;;5.93;2.22;;;;;;;7.74;43.17;102105.13;5005491;28;97684;-79
2022/03/04 10:44:04;;;;;;;7.15;3.42;;;;;;;8.09;41.44;102105.88;4990529;28;100874;-79
2022/03/04 10:46:55;;;;;;;7.28;3.50;;;;;;;8.82;40.24;102110.81;4988993;28;98111;-81
2022/03/04 10:49:25;;;;;;;4.43;3.20;;;;;;;7.78;41.22;102109.50;5008447;28;96656;-79
2022/03/04 10:51:54;;;;;;;6.60;4.20;;;;;;;7.84;41.61;102115.63;5001924;28;96796;-81
2022/03/04 10:54:54;;;;;;;4.78;3.38;;;;;;;7.71;41.57;102118.28;4994975;28;99522;-82
2022/03/04 10:57:28;;;;;;;16.77;4.43;;;;;;;7.97;41.70;102116.47;4987339;28;96759;-81
2022/03/04 11:00:40;;;;;;;;;;;;;;;;;;;;;
2022/03/04 11:04:05;;;;;;;8.80;4.63;;;;;;;7.92;41.57;102115.59;4999991;28;123178;-83
2022/03/04 11:18:10;;;;;;;15.00;4.95;;;;;;;8.14;42.07;102108.53;4975682;28;97267;-79
2022/03/04 11:23:56;;;;;;;8.85;5.22;;;;;;;7.92;42.33;102110.34;4968675;28;96876;-82
2022/03/04 11:26:26;;;;;;;9.02;5.03;;;;;;;8.59;40.88;102118.00;4972325;28;96672;-79
2022/03/04 11:29:15;;;;;;;7.10;5.32;;;;;;;9.02;39.95;102115.94;4970772;28;97846;-82
2022/03/04 11:31:45;;;;;;;9.40;5.25;;;;;;;9.62;38.97;102100.47;4966982;28;100172;-82
2022/03/04 11:34:25;;;;;;;8.00;5.55;;;;;;;8.92;39.47;102107.25;4969543;28;97032;-82
2022/03/04 11:37:19;;;;;;;11.55;5.32;;;;;;;9.16;39.11;102108.81;4968384;28;97268;-81
2022/03/04 11:40:33;;;;;;;7.53;5.65;;;;;;;9.34;38.74;102113.91;4967843;28;98826;-81
2022/03/04 11:46:29;;;;;;;9.48;5.45;;;;;;;8.73;38.87;102106.47;4972037;28;97488;-81
2022/03/04 11:49:25;;;;;;;8.93;5.30;;;;;;;8.54;38.81;102114.47;4974531;28;97321;-81
2022/03/04 11:52:29;;;;;;;10.77;5.68;;;;;;;9.35;37.99;102107.75;4973814;28;97895;-80
2022/03/04 11:55:49;;;;;;;;;;;;;;;;;;;;;
2022/03/04 11:58:57;;;;;;;8.93;5.35;;;;;;;9.79;36.87;102101.16;4892430;28;120665;-81
2022/03/04 12:02:10;;;;;;;;;;;;;;;;;;;;;
2022/03/04 12:05:07;;;;;;;7.75;5.63;;;;;;;9.70;37.45;102104.78;4970266;28;124843;-80
2022/03/04 12:07:44;;;;;;;7.30;5.75;;;;;;;9.00;38.66;102108.03;4970494;28;99070;-80
2022/03/04 12:10:35;;;;;;;8.70;5.95;;;;;;;9.42;38.14;102096.25;4970864;28;98861;-80
2022/03/04 12:13:07;;;;;;;11.45;5.65;;;;;;;9.01;38.83;102106.28;4957558;28;96862;-82
2022/03/04 12:18:51;;;;;;;11.65;5.13;;;;;;;9.69;38.05;102089.84;4968269;28;98202;-80
2022/03/04 12:21:32;;;;;;;6.22;4.43;;;;;;;9.02;38.96;102087.81;4981976;28;96915;-81
2022/03/04 12:24:05;;;;;;;7.55;2.67;;;;;;;8.56;40.01;102097.78;4980401;28;96827;-78
2022/03/04 12:26:52;;;;;;;7.18;2.33;;;;;;;9.07;39.33;102095.69;4986813;28;98977;-81
2022/03/04 12:30:09;;;;;;;5.75;2.15;;;;;;;9.46;38.00;102075.97;4975982;28;99336;-81
2022/03/04 12:32:54;;;;;;;8.85;2.10;;;;;;;9.66;38.00;102086.34;4945905;28;96892;-80
2022/03/04 12:35:37;;;;;;;6.22;3.35;;;;;;;9.28;38.30;102084.97;4978554;28;96863;-80
2022/03/04 12:38:15;;;;;;;6.43;3.20;;;;;;;9.59;37.57;102080.25;4971444;28;99154;-80
2022/03/04 12:43:31;;;;;;;7.13;3.40;;;;;;;8.70;39.17;102079.28;4981691;28;97662;-82
2022/03/04 12:45:57;;;;;;;7.85;3.20;;;;;;;9.86;37.29;102074.69;4977682;28;96700;-80
2022/03/04 12:48:40;;;;;;;4.63;2.80;;;;;;;10.39;35.92;102070.50;4979058;28;99206;-82
2022/03/04 12:51:32;;;;;;;6.45;3.00;;;;;;;10.11;35.90;102071.75;4980825;28;98020;-80
2022/03/04 12:54:19;;;;;;;6.03;2.70;;;;;;;10.48;34.77;102069.53;4978339;28;96933;-82
2022/03/04 12:56:55;;;;;;;3.83;2.50;;;;;;;9.50;36.01;102072.44;4981639;28;97028;-80
2022/03/04 12:59:30;;;;;;;11.43;3.40;;;;;;;9.40;36.57;102068.13;4981442;28;97516;-81
2022/03/04 13:02:10;;;;;;;5.80;2.60;;;;;;;9.53;35.99;102075.03;4983759;28;98126;-81
2022/03/04 13:04:37;;;;;;;6.85;3.10;;;;;;;10.07;35.72;102072.66;4973438;28;96821;-79
2022/03/04 13:07:04;;;;;;;4.18;3.10;;;;;;;10.51;35.15;102077.41;4975462;28;97296;-79
2022/03/04 13:09:35;;;;;;;6.88;3.53;;;;;;;10.62;34.72;102073.72;4974002;28;97772;-80
2022/03/04 13:18:04;;;;;;;5.35;3.00;;;;;;;10.13;35.37;102067.31;4913633;28;97854;-81
2022/03/04 13:21:15;;;;;;;6.07;2.97;;;;;;;10.00;34.66;102059.53;4909934;28;98458;-80
2022/03/04 13:24:01;;;;;;;6.38;3.03;;;;;;;9.91;35.04;102066.72;4933654;28;100415;-82
2022/03/04 14:01:03;;;;;;;7.40;2.78;;;;;;;8.98;37.13;102086.09;5028411;27;98007;-82
2022/03/04 14:03:42;;;;;;;5.65;2.50;;;;;;;8.88;36.69;102081.75;5034822;27;99873;-81
2022/03/04 14:06:15;;;;;;;4.25;2.40;;;;;;;8.33;38.03;102090.03;5054625;27;99047;-81
2022/03/04 14:08:43;;;;;;;4.40;2.13;;;;;;;8.65;37.33;102076.66;5052468;27;96873;-81
2022/03/04 14:11:11;;;;;;;4.63;2.40;;;;;;;8.64;37.17;102087.22;5088489;27;96905;-81
2022/03/04 14:16:59;;;;;;;5.15;2.00;;;;;;;8.97;36.33;102079.06;5099645;27;97372;-81
2022/03/04 14:19:28;;;;;;;2.90;2.22;;;;;;;10.00;34.67;102067.47;5071678;27;97283;-82
2022/03/04 14:22:00;;;;;;;4.93;1.60;;;;;;;9.50;35.37;102070.69;5070538;27;96966;-81
2022/03/04 14:24:27;;;;;;;10.55;2.30;;;;;;;9.22;35.76;102073.59;5070758;27;101786;-80
2022/03/04 14:30:34;;;;;;;7.10;1.95;;;;;;;9.45;35.82;102079.53;4988333;28;96485;-80
2022/03/04 14:33:04;;;;;;;5.50;1.90;;;;;;;9.64;35.43;102077.59;5059388;27;96160;-79
2022/03/04 14:35:38;;;;;;;2.75;1.83;;;;;;;9.90;34.83;102075.53;5088660;27;97815;-80
2022/03/04 14:38:07;;;;;;;4.22;2.28;;;;;;;9.82;34.79;102072.97;5081897;27;99320;-79
2022/03/04 14:41:23;;;;;;;3.22;1.73;;;;;;;9.33;35.63;102077.00;5080093;27;97522;-81
2022/03/04 14:58:30;;;;;;;4.93;1.55;;;;;;;8.33;38.28;102078.63;5012142;27;96859;-80
2022/03/04 15:00:57;;;;;;;5.85;1.92;;;;;;;8.45;38.03;102075.91;5053727;27;99006;-77
2022/03/04 15:03:55;;;;;;;4.97;1.60;;;;;;;8.78;36.89;102086.25;5051554;27;102427;-81
2022/03/04 15:07:04;;;;;;;;;;;;;;;;;;;;;
2022/03/04 15:10:04;;;;;;;6.90;1.90;;;;;;;9.24;35.38;102080.59;5037630;27;111145;-83
2022/03/04 15:12:30;;;;;;;3.30;1.92;;;;;;;9.03;35.99;102084.28;5023789;27;99464;-80
2022/03/04 15:14:58;;;;;;;6.68;2.45;;;;;;;9.54;34.88;102079.44;5031373;27;99286;-80
2022/03/04 15:17:26;;;;;;;7.03;1.88;;;;;;;9.60;34.40;102082.00;5030336;27;97219;-79
2022/03/04 15:19:53;;;;;;;5.05;2.00;;;;;;;9.90;34.08;102076.41;5031645;27;97125;-79
2022/03/04 15:22:20;;;;;;;4.03;2.00;;;;;;;9.74;34.38;102082.72;5024249;27;98990;-79
2022/03/04 15:24:46;;;;;;;4.50;1.65;;;;;;;9.84;34.13;102075.59;5032458;27;99008;-80
2022/03/04 15:27:13;;;;;;;2.95;1.83;;;;;;;9.77;34.19;102088.00;5029359;27;97045;-78
2022/03/04 15:29:40;;;;;;;11.27;2.47;;;;;;;9.62;34.55;102082.00;5024950;27;97150;-79
2022/03/04 15:32:12;;;;;;;3.25;1.70;;;;;;;9.57;34.78;102087.34;5032892;27;98941;-81
2022/03/04 15:34:42;;;;;;;4.78;1.90;;;;;;;9.58;34.74;102075.88;5026138;27;100086;-80
2022/03/04 15:37:23;;;;;;;;;;;;;;;;;;;;;
2022/03/04 15:39:50;;;;;;;7.30;1.77;;;;;;;9.05;35.52;102077.25;5022567;27;111331;-80
2022/03/04 15:42:17;;;;;;;4.95;1.83;;;;;;;9.46;34.90;102079.50;5026719;27;97974;-79
2022/03/04 15:44:46;;;;;;;6.53;2.00;;;;;;;9.40;34.90;102076.03;5030483;27;98854;-81
2022/03/04 15:47:15;;;;;;;3.60;1.60;;;;;;;9.64;34.67;102078.47;5031717;27;97597;-81
2022/03/04 15:49:42;;;;;;;4.35;2.00;;;;;;;9.45;34.94;102074.25;5033678;27;97093;-80
2022/03/04 15:52:08;;;;;;;5.80;2.05;;;;;;;8.84;35.75;102080.06;5025922;27;99321;-80
2022/03/04 15:54:58;;;;;;;4.45;1.60;;;;;;;8.85;35.63;102076.53;5032317;27;100398;-81
2022/03/04 15:57:40;;;;;;;3.55;1.80;;;;;;;8.45;36.67;102089.09;5034769;27;97187;-80
2022/03/04 16:00:08;;;;;;;6.90;1.88;;;;;;;8.57;36.25;102080.22;5048594;27;97022;-78
2022/03/04 16:02:42;;;;;;;5.68;2.08;;;;;;;8.59;36.10;102081.09;5041336;27;99052;-79
2022/03/04 16:05:12;;;;;;;3.65;1.90;;;;;;;8.96;35.61;102087.88;5037848;27;101048;-82
2022/03/04 16:07:38;;;;;;;6.15;2.15;;;;;;;9.37;34.76;102074.34;5031047;27;97389;-81
2022/03/04 16:10:08;;;;;;;6.82;2.72;;;;;;;8.91;35.41;102079.13;5036362;27;97455;-83
2022/03/04 16:12:34;;;;;;;9.43;1.90;;;;;;;9.17;35.09;102082.44;5025807;27;99334;-80
2022/03/04 16:15:05;;;;;;;4.45;1.70;;;;;;;8.94;35.40;102083.47;5031199;27;98831;-81
2022/03/04 16:17:39;;;;;;;4.35;2.05;;;;;;;9.40;34.95;102078.69;5025664;28;96836;-82
2022/03/04 16:20:12;;;;;;;5.47;2.25;;;;;;;9.67;34.43;102069.63;5030587;28;97247;-79
2022/03/04 16:22:39;;;;;;;3.38;1.67;;;;;;;9.78;33.69;102065.13;5029530;28;101144;-81
2022/03/04 16:25:15;;;;;;;4.03;1.80;;;;;;;9.86;33.84;102072.03;5037754;27;98849;-80
2022/03/04 16:27:54;;;;;;;5.55;2.83;;;;;;;10.14;33.30;102074.34;5047182;27;96719;-80
2022/03/04 16:30:29;;;;;;;5.95;1.92;;;;;;;10.00;33.51;102070.09;5033131;27;97018;-81
2022/03/04 16:32:58;;;;;;;9.75;1.83;;;;;;;10.27;33.08;102075.97;5025080;28;96913;-79
2022/03/04 16:35:26;;;;;;;6.22;2.72;;;;;;;10.06;33.44;102070.91;5034008;27;99026;-77
2022/03/04 16:37:53;;;;;;;9.63;1.90;;;;;;;9.88;34.08;102072.91;5039170;27;96682;-80
2022/03/04 16:40:19;;;;;;;5.72;2.22;;;;;;;9.55;34.53;102078.53;5031669;27;96897;-79
2022/03/04 16:42:46;;;;;;;12.77;6.45;;;;;;;9.33;35.04;102088.41;5024440;27;98804;-79
2022/03/04 16:52:56;;;;;;;5.25;2.08;;;;;;;9.32;35.14;102093.72;4899717;28;97021;-80
2022/03/04 16:55:30;;;;;;;8.40;1.90;;;;;;;9.51;34.61;102087.41;5001522;27;100986;-81
2022/03/04 16:58:12;;;;;;;;;;;;;;;;;;;;;
2022/03/04 17:01:21;;;;;;;7.05;1.80;;;;;;;9.24;35.46;102090.28;5005721;27;112504;-82
2022/03/04 17:07:55;;;;;;;;;;;;;;;;;;;;;
2022/03/04 17:10:34;;;;;;;12.85;4.18;;;;;;;9.96;34.42;102080.75;5027632;27;123066;-82
2022/03/04 17:19:26;;;;;;;;;;;;;;;;;;;;;
2022/03/04 17:21:53;;;;;;;6.35;2.30;;;;;;;9.31;34.83;102087.59;5037259;27;125271;-81
2022/03/04 19:01:18;;;;;;;7.65;3.20;;;;;;;9.07;35.94;102148.41;4884584;28;98760;-80
2022/03/04 19:06:44;;;;;;;7.20;2.57;;;;;;;8.99;36.29;102150.25;4976617;28;97636;-81
2022/03/04 19:12:41;;;;;;;5.13;2.65;;;;;;;9.07;36.49;102141.38;4978521;28;96831;-80
2022/03/04 19:18:24;;;;;;;9.57;2.80;;;;;;;9.03;36.80;102151.97;5487583;23;99958;-77
2022/03/04 19:20:52;;;;;;;4.43;2.97;;;;;;;8.99;36.49;102150.25;5024816;27;98942;-78
2022/03/04 19:23:19;;;;;;;6.35;2.55;;;;;;;9.24;36.63;102150.94;5031789;28;99071;-76
2022/03/04 19:25:45;;;;;;;6.63;2.97;;;;;;;8.90;36.98;102152.94;5037932;28;96675;-76
2022/03/04 19:28:12;;;;;;;6.43;2.92;;;;;;;8.89;37.26;102153.81;5026666;27;98514;-77
2022/03/04 19:30:42;;;;;;;7.85;2.38;;;;;;;9.01;37.20;102148.47;5137754;22;99132;-80
2022/03/04 19:33:12;;;;;;;11.00;2.65;;;;;;;8.94;37.33;102134.44;5031685;27;98235;-81
2022/03/04 19:35:42;;;;;;;10.32;2.60;;;;;;;9.01;37.12;102138.78;5032984;27;96934;-79
2022/03/04 19:38:10;;;;;;;12.00;3.13;;;;;;;8.86;37.28;102141.53;5028240;27;97111;-79
2022/03/04 19:40:42;;;;;;;7.85;2.80;;;;;;;9.11;36.79;102135.22;5026057;27;98850;-81
2022/03/04 19:43:11;;;;;;;8.45;3.15;;;;;;;8.66;37.66;102133.72;5034905;28;99908;-79
2022/03/04 19:45:37;;;;;;;8.45;3.22;;;;;;;8.67;37.59;102135.50;5027671;27;96766;-79